Time;durP1;ratioP1;P1;durP2;ratioP2;P2;SDS_P1;SDS_P2;PMS_P1;PMS_P2;Temp;Humidity;BMP_temperature;BMP_pressure;BME280_temperature;BME280_humidity;BME280_pressure;Samples;Min_cycle;Max_cycle;Signal;HPM_P1;HPM_P2
2023/08/31 00:01:33;;;;;;;13.68;10.82;;;;;;;16.60;100.00;99335.14;1750767;82;25562;-56
2023/08/31 00:04:02;;;;;;;19.00;11.43;;;;;;;16.57;100.00;99331.83;1750821;82;25547;-53
2023/08/31 00:06:31;;;;;;;;;;;;;;;16.56;100.00;99328.88;1753421;82;25588;-56
2023/08/31 00:08:58;;;;;;;16.97;10.70;;;;;;;16.55;100.00;99334.92;1751187;81;25617;-53
2023/08/31 00:11:26;;;;;;;17.23;10.35;;;;;;;16.53;100.00;99333.70;1750735;82;29713;-54
2023/08/31 00:13:54;;;;;;;18.98;11.88;;;;;;;16.54;100.00;99333.92;1750761;82;25455;-55
2023/08/31 00:16:27;;;;;;;14.80;11.68;;;;;;;16.53;100.00;99337.80;1750858;82;25631;-54
2023/08/31 00:18:59;;;;;;;17.40;11.18;;;;;;;16.50;100.00;99333.89;1750824;82;25491;-56
2023/08/31 00:21:27;;;;;;;16.45;12.03;;;;;;;16.50;100.00;99339.91;1750867;82;25579;-55
2023/08/31 00:23:54;;;;;;;19.77;11.97;;;;;;;16.49;100.00;99336.98;1750926;82;27584;-56
2023/08/31 00:26:20;;;;;;;17.35;11.70;;;;;;;16.47;100.00;99337.36;1750667;82;25377;-53
2023/08/31 00:28:46;;;;;;;15.88;12.05;;;;;;;16.47;100.00;99335.22;1750920;82;25276;-55
2023/08/31 00:31:13;;;;;;;14.68;11.48;;;;;;;16.46;100.00;99330.91;1750706;82;27604;-56
2023/08/31 00:33:39;;;;;;;19.48;11.63;;;;;;;16.44;100.00;99327.95;1750803;82;25386;-56
2023/08/31 00:36:08;;;;;;;15.25;11.12;;;;;;;16.43;100.00;99325.03;1750766;82;27528;-56
2023/08/31 00:38:34;;;;;;;16.30;10.90;;;;;;;16.43;100.00;99322.89;1750775;82;25626;-55
2023/08/31 00:41:01;;;;;;;18.30;11.43;;;;;;;16.43;100.00;99326.40;1750771;82;25643;-55
2023/08/31 00:43:29;;;;;;;14.00;11.33;;;;;;;16.42;100.00;99331.64;1750689;82;27616;-54
2023/08/31 00:46:00;;;;;;;17.23;11.15;;;;;;;16.44;100.00;99331.27;1750860;82;25544;-53
2023/08/31 00:48:27;;;;;;;12.18;10.40;;;;;;;16.44;100.00;99333.41;1750809;82;27488;-56
2023/08/31 00:50:56;;;;;;;13.40;10.20;;;;;;;16.43;100.00;99333.81;1750692;82;25374;-55
2023/08/31 00:53:25;;;;;;;15.35;10.88;;;;;;;16.42;100.00;99333.00;1750614;81;25456;-55
2023/08/31 00:55:54;;;;;;;15.10;11.12;;;;;;;16.41;100.00;99325.98;1750755;82;25553;-56
2023/08/31 00:58:20;;;;;;;18.67;10.88;;;;;;;16.39;100.00;99322.83;1750823;82;25551;-55
2023/08/31 01:00:58;;;;;;;14.10;10.25;;;;;;;16.40;100.00;99326.36;1750865;82;27639;-56
2023/08/31 01:03:39;;;;;;;13.22;10.63;;;;;;;16.38;100.00;99332.19;1750193;82;25451;-55
2023/08/31 01:06:42;;;;;;;12.82;10.08;;;;;;;16.38;100.00;99335.50;1749322;82;25841;-56
2023/08/31 01:09:27;;;;;;;18.62;10.08;;;;;;;16.37;100.00;99333.92;1698711;84;25717;-54
2023/08/31 01:12:29;;;;;;;12.33;9.73;;;;;;;16.34;100.00;99338.16;1695255;84;25635;-54
2023/08/31 01:15:12;;;;;;;13.48;9.73;;;;;;;16.33;100.00;99337.97;1694823;84;27570;-52
2023/08/31 01:17:46;;;;;;;11.80;9.53;;;;;;;16.31;100.00;99334.02;1696201;84;25512;-54
2023/08/31 01:20:20;;;;;;;12.93;8.78;;;;;;;16.30;100.00;99337.34;1696323;84;25921;-53
2023/08/31 01:23:06;;;;;;;14.50;8.83;;;;;;;16.28;100.00;99341.03;1696324;84;25639;-56
2023/08/31 01:25:35;;;;;;;15.38;9.45;;;;;;;16.27;100.00;99344.90;1695866;84;25607;-56
2023/08/31 01:28:07;;;;;;;12.73;8.25;;;;;;;16.24;100.00;99345.63;1696291;84;29587;-56
2023/08/31 01:30:34;;;;;;;13.20;9.55;;;;;;;16.22;100.00;99344.64;1696183;84;25595;-54
2023/08/31 01:33:06;;;;;;;11.30;8.85;;;;;;;16.21;100.00;99345.03;1696230;84;25696;-53
2023/08/31 01:35:38;;;;;;;18.05;8.80;;;;;;;16.19;100.00;99355.50;1696252;84;25595;-56
2023/08/31 01:38:12;;;;;;;10.63;8.73;;;;;;;16.17;100.00;99353.73;1696158;84;25572;-55
2023/08/31 01:40:50;;;;;;;10.60;7.92;;;;;;;16.16;100.00;99345.36;1695633;84;28195;-53
2023/08/31 01:43:20;;;;;;;14.70;8.10;;;;;;;16.15;100.00;99347.86;1720413;81;26082;-52
2023/08/31 01:45:50;;;;;;;12.68;8.50;;;;;;;16.12;100.00;99341.19;1745498;81;25497;-53
2023/08/31 01:48:16;;;;;;;14.85;7.60;;;;;;;16.12;100.00;99341.19;1745420;82;27703;-54
2023/08/31 01:50:43;;;;;;;9.65;7.75;;;;;;;16.11;100.00;99342.36;1756165;81;25457;-56
2023/08/31 01:53:12;;;;;;;11.03;7.53;;;;;;;16.09;100.00;99341.14;1724425;83;27489;-53
2023/08/31 01:55:41;;;;;;;9.93;7.40;;;;;;;16.06;100.00;99345.41;1756029;81;25754;-53
2023/08/31 01:58:08;;;;;;;11.60;7.35;;;;;;;16.03;100.00;99348.28;1745571;82;25546;-53
2023/08/31 02:00:38;;;;;;;10.90;6.78;;;;;;;16.03;100.00;99343.41;1745480;82;27623;-52
2023/08/31 02:03:06;;;;;;;8.15;6.80;;;;;;;16.04;100.00;99343.64;1756313;81;25724;-54
2023/08/31 02:05:35;;;;;;;9.73;7.12;;;;;;;16.00;100.00;99344.92;1724606;83;28424;-53
2023/08/31 02:08:01;;;;;;;7.55;6.85;;;;;;;15.99;100.00;99348.83;1756083;81;27427;-53
2023/08/31 02:10:29;;;;;;;12.50;7.00;;;;;;;15.97;100.00;99347.60;1756265;81;25400;-55
2023/08/31 02:12:58;;;;;;;8.50;6.20;;;;;;;15.95;100.00;99345.24;1756494;81;25543;-55
2023/08/31 02:15:24;;;;;;;8.85;7.15;;;;;;;15.92;100.00;99355.55;1756376;81;25567;-55
2023/08/31 02:17:51;;;;;;;9.73;7.12;;;;;;;15.90;100.00;99358.42;1724628;83;27184;-56
2023/08/31 02:20:17;;;;;;;8.10;6.20;;;;;;;15.90;100.00;99357.83;1756243;81;25556;-53
2023/08/31 02:22:43;;;;;;;11.57;7.15;;;;;;;15.89;100.00;99356.86;1756233;81;25607;-56
2023/08/31 02:25:09;;;;;;;7.60;6.05;;;;;;;15.87;100.00;99351.77;1756170;81;27794;-54
2023/08/31 02:27:35;;;;;;;9.33;6.55;;;;;;;15.87;100.00;99355.86;1756204;81;25392;-55
2023/08/31 02:30:04;;;;;;;7.45;6.22;;;;;;;15.87;100.00;99349.05;1756203;81;27541;-51
2023/08/31 02:32:32;;;;;;;8.90;6.35;;;;;;;15.85;100.00;99352.69;1755253;81;25548;-53
2023/08/31 02:35:00;;;;;;;10.23;6.40;;;;;;;15.82;100.00;99352.86;1724664;83;25378;-54
2023/08/31 02:37:28;;;;;;;7.20;6.45;;;;;;;15.80;100.00;99349.72;1756251;81;25560;-54
2023/08/31 02:39:55;;;;;;;7.65;6.28;;;;;;;15.80;100.00;99354.38;1745534;82;25210;-56
2023/08/31 02:42:21;;;;;;;8.63;6.42;;;;;;;15.78;100.00;99354.77;1756223;81;27418;-55
2023/08/31 02:44:47;;;;;;;7.20;6.37;;;;;;;15.77;100.00;99359.22;1756150;81;25568;-53
2023/08/31 02:47:13;;;;;;;7.55;5.92;;;;;;;15.77;100.00;99359.22;1714256;82;25676;-52
2023/08/31 02:49:39;;;;;;;7.83;6.45;;;;;;;15.77;100.00;99358.63;1756178;81;25548;-54
2023/08/31 02:52:07;;;;;;;6.87;6.17;;;;;;;15.75;100.00;99347.84;1756207;81;25395;-54
2023/08/31 02:54:34;;;;;;;7.05;6.22;;;;;;;15.72;100.00;99350.73;1759844;81;28359;-55
2023/08/31 02:57:01;;;;;;;7.45;5.75;;;;;;;15.72;100.00;99354.05;1759582;81;25720;-55
2023/08/31 02:59:28;;;;;;;9.88;6.62;;;;;;;15.71;100.00;99362.78;1759732;81;25385;-52
2023/08/31 03:01:55;;;;;;;8.30;6.30;;;;;;;15.66;100.00;99357.09;1732818;82;27801;-54
2023/08/31 03:04:22;;;;;;;7.78;6.15;;;;;;;15.65;100.00;99360.95;1759764;81;25404;-53
2023/08/31 03:06:49;;;;;;;10.18;6.62;;;;;;;15.65;100.00;99365.62;1759753;81;27426;-51
2023/08/31 03:09:15;;;;;;;7.85;6.45;;;;;;;15.64;100.00;99371.63;1732835;82;26095;-55
2023/08/31 03:11:42;;;;;;;9.15;7.15;;;;;;;15.61;100.00;99371.58;1759669;81;25598;-55
2023/08/31 03:14:09;;;;;;;9.00;6.10;;;;;;;15.58;100.00;99374.47;1759659;81;25696;-55
2023/08/31 03:16:36;;;;;;;8.73;5.72;;;;;;;15.58;100.00;99379.92;1729539;83;25557;-54
2023/08/31 03:19:02;;;;;;;8.15;6.37;;;;;;;15.55;100.00;99380.65;1732847;82;27515;-52
2023/08/31 03:21:29;;;;;;;9.50;6.58;;;;;;;15.54;100.00;99386.46;1759617;81;25626;-52
2023/08/31 03:23:55;;;;;;;8.98;7.60;;;;;;;15.53;100.00;99387.05;1759699;81;25611;-54
2023/08/31 03:26:21;;;;;;;9.05;7.65;;;;;;;15.54;100.00;99385.09;1759672;81;25589;-55
2023/08/31 03:28:47;;;;;;;13.50;8.40;;;;;;;15.54;100.00;99384.52;1759683;81;25398;-55
2023/08/31 03:31:13;;;;;;;8.78;7.15;;;;;;;15.53;100.00;99385.69;1759699;81;27460;-55
2023/08/31 03:33:40;;;;;;;8.58;6.95;;;;;;;15.51;100.00;99379.81;1759625;81;25758;-53
2023/08/31 03:36:06;;;;;;;9.83;6.83;;;;;;;15.52;100.00;99376.50;1759621;81;25586;-55
2023/08/31 03:38:37;;;;;;;8.98;6.53;;;;;;;15.52;100.00;99379.23;1732836;82;26241;-54
2023/08/31 03:41:05;;;;;;;9.73;6.70;;;;;;;15.52;100.00;99378.65;1705523;82;25257;-55
2023/08/31 03:43:31;;;;;;;7.15;6.28;;;;;;;15.51;100.00;99385.27;1732884;82;27424;-54
2023/08/31 03:46:02;;;;;;;6.65;5.95;;;;;;;15.49;100.00;99389.72;1759561;81;25482;-52
2023/08/31 03:48:28;;;;;;;8.85;6.87;;;;;;;15.50;100.00;99390.49;1759769;81;25592;-55
2023/08/31 03:50:56;;;;;;;7.15;5.90;;;;;;;15.50;100.00;99386.41;1732809;82;25618;-52
2023/08/31 03:53:24;;;;;;;11.05;6.37;;;;;;;15.49;100.00;99384.27;1736529;82;25619;-52
2023/08/31 03:55:50;;;;;;;13.90;6.05;;;;;;;15.49;100.00;99401.17;1756191;81;27460;-55
2023/08/31 03:58:16;;;;;;;6.53;5.58;;;;;;;15.45;100.00;99390.22;1756185;81;25400;-55
2023/08/31 04:00:43;;;;;;;5.92;4.90;;;;;;;15.44;100.00;99392.75;1756273;81;25536;-52
2023/08/31 04:03:12;;;;;;;6.62;5.35;;;;;;;15.43;100.00;99397.97;1745574;82;25561;-53
2023/08/31 04:05:39;;;;;;;9.20;5.37;;;;;;;15.42;100.00;99396.97;1745562;82;25728;-54
2023/08/31 04:08:08;;;;;;;10.25;5.25;;;;;;;15.42;100.00;99397.75;1756176;81;27558;-54
2023/08/31 04:10:34;;;;;;;7.00;5.08;;;;;;;15.42;100.00;99395.60;1745570;82;32741;-55
2023/08/31 04:13:01;;;;;;;6.65;4.92;;;;;;;15.42;100.00;99395.60;1756170;81;25466;-55
2023/08/31 04:15:27;;;;;;;5.53;4.17;;;;;;;15.43;100.00;99396.61;1756144;81;25609;-56
2023/08/31 04:17:55;;;;;;;4.90;4.33;;;;;;;15.43;100.00;99396.61;1739797;82;25636;-53
2023/08/31 04:20:22;;;;;;;6.20;5.17;;;;;;;15.46;100.00;99403.25;1756131;81;27567;-52
2023/08/31 04:22:49;;;;;;;8.58;5.33;;;;;;;15.46;100.00;99393.72;1756059;81;25612;-52
2023/08/31 04:25:19;;;;;;;5.35;4.50;;;;;;;15.47;100.00;99392.58;1726713;81;25459;-56
2023/08/31 04:27:45;;;;;;;;;;;;;;;15.50;100.00;99394.58;1758781;81;25548;-55
2023/08/31 04:30:12;;;;;;;4.45;4.00;;;;;;;15.52;100.00;99399.09;1739719;82;25583;-55
2023/08/31 04:32:38;;;;;;;6.97;4.75;;;;;;;15.52;100.00;99403.17;1756229;81;27515;-55
2023/08/31 04:35:06;;;;;;;5.20;4.35;;;;;;;15.54;100.00;99401.45;1756094;81;25807;-55
2023/08/31 04:37:33;;;;;;;5.58;4.47;;;;;;;15.58;100.00;99405.01;1745615;82;25445;-54
2023/08/31 04:39:59;;;;;;;42.62;28.25;;;;;;;15.61;100.00;99404.29;1745540;82;26146;-52
2023/08/31 04:42:25;;;;;;;13.58;8.38;;;;;;;15.63;100.00;99399.25;1745507;82;25574;-52
2023/08/31 04:44:51;;;;;;;7.87;4.70;;;;;;;15.68;100.00;99398.95;1756209;81;27509;-52
2023/08/31 04:47:18;;;;;;;14.43;11.20;;;;;;;15.68;100.00;99403.84;1756158;81;25388;-55
2023/08/31 04:49:44;;;;;;;10.35;7.33;;;;;;;15.68;100.00;99407.13;1756183;81;25461;-53
2023/08/31 04:52:10;;;;;;;5.42;4.40;;;;;;;15.70;100.00;99408.94;1745565;82;25555;-51
2023/08/31 04:54:36;;;;;;;6.12;4.25;;;;;;;15.72;100.00;99411.30;1760387;81;25637;-52
2023/08/31 04:57:03;;;;;;;9.25;4.50;;;;;;;15.71;100.00;99415.94;1761877;81;27521;-53
2023/08/31 04:59:29;;;;;;;8.70;5.65;;;;;;;15.75;100.00;99418.72;1761746;81;25373;-51
2023/08/31 05:01:55;;;;;;;9.48;5.05;;;;;;;15.77;100.00;99421.34;1761879;81;25571;-53
2023/08/31 05:04:23;;;;;;;6.15;4.08;;;;;;;15.82;100.00;99432.52;1761821;81;25441;-53
2023/08/31 05:06:49;;;;;;;4.50;4.10;;;;;;;15.84;100.00;99435.66;1761898;81;25471;-52
2023/08/31 05:09:16;;;;;;;5.37;4.87;;;;;;;15.89;100.00;99442.17;1761877;81;27520;-55
2023/08/31 05:11:42;;;;;;;8.50;4.15;;;;;;;15.95;100.00;99439.33;1761749;81;25436;-56
2023/08/31 05:14:08;;;;;;;5.35;3.87;;;;;;;16.01;100.00;99447.42;1761786;81;25358;-53
2023/08/31 05:16:34;;;;;;;5.15;4.58;;;;;;;16.04;100.00;99450.79;1761542;81;26080;-55
2023/08/31 05:19:01;;;;;;;3.92;3.40;;;;;;;16.07;100.00;99449.25;1761878;81;25583;-55
2023/08/31 05:21:27;;;;;;;5.45;3.27;;;;;;;16.07;100.00;99453.34;1761841;81;27484;-53
2023/08/31 05:23:53;;;;;;;4.28;3.10;;;;;;;16.10;100.00;99458.66;1761728;81;25442;-53
2023/08/31 05:26:19;;;;;;;3.80;3.05;;;;;;;16.12;100.00;99452.25;1761896;81;25384;-55
2023/08/31 05:28:45;;;;;;;3.70;3.40;;;;;;;16.13;100.00;99456.57;1761855;81;25540;-52
2023/08/31 05:31:12;;;;;;;5.47;4.60;;;;;;;16.15;100.00;99455.62;1761943;81;25385;-52
2023/08/31 05:33:38;;;;;;;3.08;2.75;;;;;;;16.18;100.00;99450.21;1762017;81;27478;-55
2023/08/31 05:36:06;;;;;;;4.20;2.12;;;;;;;16.22;100.00;99455.72;1761888;81;25816;-53
2023/08/31 05:38:32;;;;;;;3.37;2.27;;;;;;;16.24;100.00;99450.12;1762076;81;25623;-54
2023/08/31 05:41:09;;;;;;;5.25;2.10;;;;;;;16.29;100.00;99450.95;1762063;81;25502;-52
2023/08/31 05:43:40;;;;;;;5.75;2.50;;;;;;;16.32;100.00;99452.95;1762056;81;25455;-52
2023/08/31 05:46:07;;;;;;;2.92;2.42;;;;;;;16.38;100.00;99454.22;1762022;81;28002;-53
2023/08/31 05:48:36;;;;;;;3.05;2.75;;;;;;;16.44;100.00;99458.18;1730056;82;25847;-52
2023/08/31 05:51:03;;;;;;;2.52;2.20;;;;;;;16.46;100.00;99461.91;1762006;81;25527;-53
2023/08/31 05:53:31;;;;;;;4.15;2.55;;;;;;;16.43;100.00;99453.89;1761848;80;26084;-55
2023/08/31 05:56:06;;;;;;;3.35;2.10;;;;;;;16.49;100.00;99461.17;1762059;81;25496;-54
2023/08/31 05:58:35;;;;;;;3.50;2.30;;;;;;;16.54;100.00;99466.31;1717650;82;27614;-54
2023/08/31 06:01:03;;;;;;;2.85;2.00;;;;;;;16.56;100.00;99465.36;1761911;81;25389;-57
2023/08/31 06:03:30;;;;;;;2.70;1.62;;;;;;;16.58;100.00;99472.05;1742718;82;25660;-56
2023/08/31 06:05:58;;;;;;;2.47;2.27;;;;;;;16.60;100.00;99473.81;1761959;81;25568;-55
2023/08/31 06:08:25;;;;;;;6.70;4.85;;;;;;;16.63;100.00;99481.83;1762005;81;25660;-53
2023/08/31 06:10:52;;;;;;;25.62;21.65;;;;;;;16.66;99.90;99479.73;1761996;81;27485;-53
2023/08/31 06:13:18;;;;;;;3.90;2.47;;;;;;;16.70;99.80;99474.31;1742620;82;25397;-55
2023/08/31 06:15:44;;;;;;;2.60;1.02;;;;;;;16.67;98.28;99486.78;1762023;81;25449;-52
2023/08/31 06:18:11;;;;;;;3.27;1.75;;;;;;;16.69;98.37;99485.05;1761924;81;25622;-52
2023/08/31 06:20:37;;;;;;;2.10;1.50;;;;;;;16.72;97.73;99487.02;1730150;83;25545;-55
2023/08/31 06:23:04;;;;;;;1.75;1.22;;;;;;;16.73;97.88;99488.02;1761965;81;27503;-56
2023/08/31 06:25:30;;;;;;;2.35;1.40;;;;;;;16.81;98.64;99491.05;1730069;83;25433;-55
2023/08/31 06:27:56;;;;;;;2.60;1.27;;;;;;;16.89;98.55;99492.53;1762023;81;25399;-53
2023/08/31 06:30:22;;;;;;;1.60;1.07;;;;;;;16.96;97.97;99492.64;1761990;81;25588;-54
2023/08/31 06:32:49;;;;;;;2.50;1.50;;;;;;;17.03;96.69;99492.72;1761995;81;25461;-53
2023/08/31 06:35:16;;;;;;;3.37;1.37;;;;;;;17.06;96.98;99498.01;1761954;81;27494;-54
2023/08/31 06:37:43;;;;;;;1.27;1.17;;;;;;;17.14;97.26;99488.74;1761887;81;25484;-52
2023/08/31 06:40:11;;;;;;;2.22;1.42;;;;;;;17.22;96.83;99496.45;1761961;81;25624;-53
2023/08/31 06:42:37;;;;;;;2.85;1.60;;;;;;;17.29;96.14;99496.53;1761920;81;25562;-55
2023/08/31 06:45:07;;;;;;;2.05;1.50;;;;;;;17.30;95.02;99492.66;1762014;81;25555;-52
2023/08/31 06:47:34;;;;;;;2.08;1.40;;;;;;;17.33;94.53;99502.25;1761961;81;27480;-52
2023/08/31 06:50:01;;;;;;;6.90;1.72;;;;;;;17.37;94.00;99505.02;1761950;81;26141;-53
2023/08/31 06:52:27;;;;;;;2.65;1.82;;;;;;;17.43;94.16;99506.23;1761925;81;25494;-51
2023/08/31 06:54:57;;;;;;;2.72;2.08;;;;;;;17.53;94.09;99507.52;1730030;83;25836;-51
2023/08/31 06:57:27;;;;;;;;;;;;;;;17.71;95.56;99510.45;1764633;81;25630;-54
2023/08/31 06:59:54;;;;;;;3.27;1.98;;;;;;;17.83;93.19;99512.13;1742719;82;29639;-53
2023/08/31 07:02:22;;;;;;;3.25;2.12;;;;;;;17.94;93.36;99524.55;1761905;81;25590;-53
2023/08/31 07:04:48;;;;;;;3.02;1.80;;;;;;;18.09;93.63;99521.55;1761959;81;25447;-55
2023/08/31 07:07:15;;;;;;;7.33;3.83;;;;;;;18.31;94.18;99520.35;1761999;81;25505;-52
2023/08/31 07:09:46;;;;;;;9.65;7.28;;;;;;;18.46;92.78;99519.28;1742793;82;25238;-56
2023/08/31 07:12:12;;;;;;;4.12;2.20;;;;;;;18.64;92.35;99515.86;1760680;81;27506;-57
2023/08/31 07:14:38;;;;;;;3.72;1.98;;;;;;;18.77;90.42;99531.41;1741276;82;27379;-54
2023/08/31 07:17:05;;;;;;;4.92;2.25;;;;;;;18.76;86.83;99529.83;1761738;81;25461;-56
2023/08/31 07:19:31;;;;;;;4.37;2.08;;;;;;;18.65;87.14;99536.03;1761965;81;25582;-53
2023/08/31 07:21:59;;;;;;;3.92;2.30;;;;;;;18.72;87.89;99532.55;1762120;81;25453;-55
2023/08/31 07:24:25;;;;;;;2.83;1.95;;;;;;;18.78;88.62;99539.25;1761949;81;27500;-56
2023/08/31 07:26:52;;;;;;;2.90;1.80;;;;;;;18.85;87.53;99539.91;1761902;81;25737;-56
2023/08/31 07:29:19;;;;;;;4.65;2.20;;;;;;;18.88;86.86;99540.48;1761949;81;25630;-54
2023/08/31 07:31:45;;;;;;;4.35;2.00;;;;;;;18.92;85.94;99535.05;1761855;81;27640;-55
2023/08/31 07:34:11;;;;;;;2.77;1.80;;;;;;;18.94;85.63;99536.22;1761960;81;25545;-53
2023/08/31 07:36:39;;;;;;;3.22;2.47;;;;;;;18.98;86.07;99532.90;1742689;82;27526;-56
2023/08/31 07:39:07;;;;;;;3.08;2.08;;;;;;;19.08;85.38;99530.61;1761868;81;25532;-53
2023/08/31 07:41:33;;;;;;;5.37;4.65;;;;;;;19.12;84.46;99532.77;1761901;81;25388;-53
2023/08/31 07:44:00;;;;;;;16.95;14.28;;;;;;;19.23;84.47;99545.95;1761857;81;27723;-50
2023/08/31 07:46:27;;;;;;;3.67;2.45;;;;;;;19.28;84.20;99542.05;1742845;79;25167;-53
2023/08/31 07:48:57;;;;;;;4.15;2.67;;;;;;;19.45;83.95;99542.69;1761876;81;27509;-50
2023/08/31 07:51:25;;;;;;;6.60;4.47;;;;;;;19.53;83.39;99542.92;1761878;81;25622;-51
2023/08/31 07:53:53;;;;;;;7.80;4.28;;;;;;;19.65;82.48;99548.63;1761901;81;25409;-50
2023/08/31 07:56:19;;;;;;;1.82;1.60;;;;;;;19.77;81.48;99551.63;1761904;81;25578;-56
2023/08/31 07:58:45;;;;;;;1.72;1.20;;;;;;;19.86;80.54;99558.10;1761945;81;25483;-56
2023/08/31 08:01:14;;;;;;;2.80;1.45;;;;;;;19.96;80.36;99559.48;1761865;81;29684;-58
2023/08/31 08:03:43;;;;;;;1.85;1.40;;;;;;;20.13;79.75;99561.27;1761803;81;25233;-60
2023/08/31 08:06:09;;;;;;;3.90;1.40;;;;;;;20.21;79.04;99561.47;1761894;81;25571;-56
2023/08/31 08:08:36;;;;;;;1.75;1.27;;;;;;;20.33;79.47;99561.67;1761813;81;25691;-57
2023/08/31 08:11:04;;;;;;;4.72;1.67;;;;;;;20.56;79.46;99550.85;1761887;81;25581;-58
2023/08/31 08:13:30;;;;;;;2.47;1.40;;;;;;;20.87;80.00;99558.86;1761865;81;27477;-57
2023/08/31 08:15:56;;;;;;;3.58;1.40;;;;;;;21.30;79.64;99557.92;1717426;82;25625;-57
2023/08/31 08:18:23;;;;;;;3.58;1.60;;;;;;;21.70;78.40;99556.56;1761872;81;25634;-57
2023/08/31 08:20:51;;;;;;;3.62;1.40;;;;;;;22.09;76.60;99552.77;1761845;81;26048;-49
2023/08/31 08:23:17;;;;;;;5.10;1.50;;;;;;;22.27;74.39;99567.78;1761889;81;25397;-50
2023/08/31 08:25:43;;;;;;;3.10;1.42;;;;;;;22.40;73.41;99565.93;1761846;81;27532;-49
2023/08/31 08:28:09;;;;;;;2.72;1.65;;;;;;;22.59;73.49;99567.33;1761804;81;25605;-50
2023/08/31 08:30:36;;;;;;;4.58;1.40;;;;;;;22.72;72.83;99579.41;1761874;81;25584;-50
2023/08/31 08:33:02;;;;;;;1.55;1.40;;;;;;;22.76;71.37;99573.25;1761775;81;25479;-53
2023/08/31 08:35:28;;;;;;;3.00;1.30;;;;;;;22.65;68.65;99584.39;1761901;81;25609;-52
2023/08/31 08:37:55;;;;;;;1.72;1.62;;;;;;;22.46;68.20;99583.00;1761852;81;27452;-51
2023/08/31 08:40:21;;;;;;;3.62;1.95;;;;;;;22.32;67.48;99578.39;1761804;81;25457;-54
2023/08/31 08:42:49;;;;;;;2.67;1.57;;;;;;;22.26;68.31;99581.36;1761864;81;25471;-58
2023/08/31 08:45:16;;;;;;;4.72;3.55;;;;;;;22.27;68.11;99580.75;1761938;81;25481;-53
2023/08/31 08:47:47;;;;;;;11.75;6.33;;;;;;;22.27;67.95;99586.26;1761965;81;25389;-55
2023/08/31 08:50:14;;;;;;;2.85;1.75;;;;;;;22.32;68.49;99592.17;1761912;81;28023;-56
2023/08/31 08:52:42;;;;;;;2.25;1.40;;;;;;;22.32;65.98;99596.30;1761777;81;25557;-56
2023/08/31 08:55:09;;;;;;;5.35;2.70;;;;;;;22.22;66.95;99586.12;1761764;81;25405;-56
2023/08/31 08:57:36;;;;;;;6.12;3.42;;;;;;;22.34;67.33;99591.16;1761857;81;25553;-55
2023/08/31 09:00:04;;;;;;;3.10;1.62;;;;;;;22.61;68.60;99582.85;1761871;81;25434;-56
2023/08/31 09:02:31;;;;;;;4.40;2.15;;;;;;;22.78;65.48;99581.11;1730172;83;28113;-55
2023/08/31 09:04:57;;;;;;;3.08;1.85;;;;;;;22.67;64.89;99583.98;1729996;82;25578;-56
2023/08/31 09:07:26;;;;;;;4.28;1.45;;;;;;;22.54;64.73;99585.88;1762042;81;25444;-55
2023/08/31 09:09:54;;;;;;;3.90;1.72;;;;;;;22.56;65.54;99582.72;1762157;81;25591;-55
2023/08/31 09:12:24;;;;;;;1.80;1.20;;;;;;;22.59;65.31;99587.39;1762063;81;25555;-56
2023/08/31 09:15:07;;;;;;;1.87;1.60;;;;;;;22.73;66.43;99585.09;1762012;81;27535;-51
2023/08/31 09:17:44;;;;;;;5.15;2.35;;;;;;;22.95;65.06;99591.17;1730166;83;25474;-53
2023/08/31 09:20:11;;;;;;;1.70;1.37;;;;;;;23.05;64.96;99586.13;1742836;82;25397;-58
2023/08/31 09:22:37;;;;;;;2.65;1.05;;;;;;;23.37;66.00;99582.25;1761932;81;25620;-57
2023/08/31 09:25:04;;;;;;;3.10;1.40;;;;;;;23.78;64.61;99591.58;1734168;81;25629;-57
2023/08/31 09:27:32;;;;;;;1.90;1.37;;;;;;;24.12;64.42;99590.71;1762034;81;27599;-57
2023/08/31 09:29:59;;;;;;;4.70;1.30;;;;;;;24.60;64.75;99593.11;1762304;81;25606;-58
2023/08/31 09:32:25;;;;;;;1.90;1.40;;;;;;;25.37;64.99;99588.31;1761995;81;25425;-57
2023/08/31 09:34:52;;;;;;;2.47;1.35;;;;;;;25.94;61.71;99587.68;1761919;81;25555;-57
2023/08/31 09:37:18;;;;;;;3.83;1.30;;;;;;;26.20;59.78;99597.75;1762005;81;25404;-57
2023/08/31 09:39:45;;;;;;;2.47;1.22;;;;;;;26.38;58.11;99595.17;1762017;81;28219;-57
2023/08/31 09:42:11;;;;;;;4.20;2.12;;;;;;;26.65;57.88;99601.84;1761916;81;25564;-57
2023/08/31 09:44:49;;;;;;;2.25;1.32;;;;;;;26.94;57.75;99604.63;1762020;81;25393;-56
2023/08/31 09:47:17;;;;;;;3.15;1.17;;;;;;;27.31;56.42;99611.38;1762076;81;25608;-55
2023/08/31 09:49:45;;;;;;;2.25;1.30;;;;;;;27.48;54.90;99605.94;1762128;81;25626;-58
2023/08/31 09:52:13;;;;;;;3.22;1.40;;;;;;;27.25;51.81;99604.80;1761974;81;29590;-57
2023/08/31 09:54:40;;;;;;;4.25;1.57;;;;;;;26.76;51.70;99611.27;1761281;81;25556;-56
2023/08/31 09:57:06;;;;;;;1.60;1.50;;;;;;;26.30;52.25;99618.73;1756371;81;25575;-56
2023/08/31 09:59:35;;;;;;;2.70;1.65;;;;;;;26.04;52.00;99617.16;1745636;82;25623;-58
2023/08/31 10:02:04;;;;;;;3.15;2.10;;;;;;;25.69;53.37;99625.02;1756645;81;25179;-59
2023/08/31 10:04:32;;;;;;;2.02;1.82;;;;;;;25.70;54.03;99624.59;1756575;81;27436;-59
2023/08/31 10:07:00;;;;;;;;;;;;;;;25.82;54.71;99629.30;1742435;82;26302;-59
2023/08/31 10:09:27;;;;;;;3.15;1.85;;;;;;;25.94;53.50;99628.63;1739890;82;25450;-59
2023/08/31 10:11:54;;;;;;;2.52;1.65;;;;;;;25.94;53.76;99634.16;1756323;81;27595;-59
2023/08/31 10:14:22;;;;;;;3.40;1.72;;;;;;;25.93;53.42;99637.36;1724767;83;25550;-58
2023/08/31 10:16:52;;;;;;;2.90;1.70;;;;;;;25.74;52.09;99642.50;1724981;83;28160;-59
2023/08/31 10:19:19;;;;;;;4.00;1.82;;;;;;;25.51;52.92;99629.56;1724675;83;25827;-59
2023/08/31 10:21:45;;;;;;;2.77;1.67;;;;;;;25.36;52.04;99637.36;1756429;81;25621;-59
2023/08/31 10:24:12;;;;;;;5.20;1.77;;;;;;;25.64;54.60;99640.16;1756383;81;25500;-59
2023/08/31 10:26:39;;;;;;;1.80;1.12;;;;;;;26.37;54.97;99640.11;1745744;82;25390;-57
2023/08/31 10:29:06;;;;;;;6.28;5.65;;;;;;;26.83;52.73;99628.51;1756427;81;28365;-57
2023/08/31 10:31:35;;;;;;;2.72;2.25;;;;;;;27.14;50.96;99626.69;1756316;81;25481;-55
2023/08/31 10:34:05;;;;;;;2.30;1.80;;;;;;;26.71;49.82;99628.43;1756514;81;25638;-57
2023/08/31 10:36:46;;;;;;;4.05;2.65;;;;;;;26.40;48.99;99628.16;1756460;81;25460;-56
2023/08/31 10:39:20;;;;;;;2.55;2.10;;;;;;;26.38;49.67;99625.05;1756499;81;25606;-56
2023/08/31 10:42:11;;;;;;;3.17;1.45;;;;;;;26.35;49.22;99627.91;1756437;81;27472;-56
2023/08/31 10:44:41;;;;;;;2.00;1.80;;;;;;;26.21;49.14;99626.27;1667238;86;25733;-60
2023/08/31 10:47:08;;;;;;;4.42;1.92;;;;;;;25.89;48.96;99638.83;1701703;84;25439;-58
2023/08/31 10:49:36;;;;;;;3.60;1.90;;;;;;;25.48;48.94;99643.63;1701737;84;25655;-57
2023/08/31 10:52:19;;;;;;;3.42;1.67;;;;;;;25.15;49.92;99641.31;1667833;86;25509;-55
2023/08/31 10:54:47;;;;;;;3.80;1.80;;;;;;;24.93;49.90;99650.00;1701701;84;27535;-59
2023/08/31 10:57:15;;;;;;;2.95;1.70;;;;;;;24.51;50.19;99650.10;1667537;86;25598;-51
2023/08/31 10:59:51;;;;;;;3.15;1.87;;;;;;;24.11;51.26;99646.57;1701817;84;25447;-50
2023/08/31 11:02:39;;;;;;;3.15;1.85;;;;;;;23.72;52.42;99646.48;1667525;86;25716;-51
2023/08/31 11:05:14;;;;;;;2.08;1.87;;;;;;;23.50;53.49;99637.08;1704117;84;25525;-51
2023/08/31 11:07:48;;;;;;;2.25;1.70;;;;;;;23.39;52.88;99642.54;1701890;84;27544;-50
2023/08/31 11:10:26;;;;;;;3.70;1.90;;;;;;;23.19;53.51;99646.50;1667640;86;25617;-48
2023/08/31 11:12:55;;;;;;;2.25;2.05;;;;;;;23.06;53.90;99643.50;1701726;84;25510;-50
2023/08/31 11:15:26;;;;;;;2.98;1.75;;;;;;;22.78;53.89;99650.03;1701732;84;26156;-51
2023/08/31 11:17:56;;;;;;;7.50;2.60;;;;;;;22.55;54.23;99645.30;1701822;84;25630;-49
2023/08/31 11:20:28;;;;;;;2.25;1.85;;;;;;;22.35;54.98;99649.78;1701750;84;28158;-50
2023/08/31 11:22:55;;;;;;;3.80;2.25;;;;;;;22.27;55.77;99655.92;1667615;86;25710;-49
2023/08/31 11:25:25;;;;;;;2.92;2.00;;;;;;;22.22;55.68;99648.66;1701753;84;25591;-49
2023/08/31 11:28:04;;;;;;;4.03;2.30;;;;;;;22.11;56.02;99641.25;1667578;85;25866;-49
2023/08/31 11:30:33;;;;;;;11.05;10.18;;;;;;;22.09;56.95;99643.63;1701886;84;32792;-49
2023/08/31 11:33:08;;;;;;;17.82;16.73;;;;;;;21.96;56.79;99644.71;1701727;84;27657;-48